Terminal Aerodrome Forecast
Issued by NWS Northern Indiana

Current Version | Previous Version | Text Only | Print | Product List | Glossary On
Versions: 1 2 3 4 5 6 7 8 9 10 11 12
000
FTUS43 KIWX 230529
TAFFWA
TAF
KFWA 230529Z 2306/2406 17008KT P6SM OVC050
     FM230800 14005KT P6SM -RA OVC035
     FM231300 11005KT 3SM -RA BR OVC020
     FM232200 23007KT P6SM -RA OVC035=

USA.gov is the U.S. government's official web portal to all federal, state and local government web resources and services.